Time;durP1;ratioP1;P1;durP2;ratioP2;P2;SDS_P1;SDS_P2;PMS_P1;PMS_P2;Temp;Humidity;BMP_temperature;BMP_pressure;BME280_temperature;BME280_humidity;BME280_pressure;Samples;Min_cycle;Max_cycle;Signal;HPM_P1;HPM_P2
2021/12/09 00:01:40;;;;;;;24.23;10.90;;;;;;;-3.51;100.00;98336.27;4215493;83;42845;-77
2021/12/09 00:07:44;;;;;;;24.00;10.82;;;;;;;-3.28;100.00;98329.11;4220444;83;43694;-76
2021/12/09 00:13:45;;;;;;;26.93;10.72;;;;;;;-3.09;100.00;98333.27;4185355;83;43338;-77
2021/12/09 00:19:46;;;;;;;27.77;12.53;;;;;;;-3.18;100.00;98321.08;4207223;82;43476;-77
2021/12/09 00:25:47;;;;;;;28.87;13.10;;;;;;;-3.12;100.00;98323.08;4229675;83;43469;-76
2021/12/09 00:31:49;;;;;;;31.00;12.43;;;;;;;-3.13;100.00;98334.59;4142228;84;43473;-76
2021/12/09 00:37:55;;;;;;;26.75;12.25;;;;;;;-3.03;100.00;98321.28;4173858;84;43390;-76
2021/12/09 00:43:54;;;;;;;24.35;11.68;;;;;;;-3.05;100.00;98322.45;4185055;84;43544;-76
2021/12/09 00:49:56;;;;;;;29.27;11.97;;;;;;;-3.25;100.00;98310.89;4204286;84;43394;-76
2021/12/09 00:55:58;;;;;;;27.60;12.15;;;;;;;-3.13;100.00;98309.60;4149978;84;43416;-76
2021/12/09 01:01:59;;;;;;;25.65;12.28;;;;;;;-2.89;100.00;98307.19;4122877;85;42893;-76
2021/12/09 01:08:01;;;;;;;25.72;11.70;;;;;;;-2.76;100.00;98295.68;4177896;85;42870;-76
2021/12/09 01:14:02;;;;;;;27.80;12.50;;;;;;;-3.24;100.00;98286.24;4190292;84;43417;-76
2021/12/09 01:20:08;;;;;;;26.97;12.37;;;;;;;-3.18;100.00;98281.63;4191724;83;43276;-76
2021/12/09 01:26:10;;;;;;;26.37;12.05;;;;;;;-3.32;100.00;98266.02;4191264;83;42976;-75
2021/12/09 01:32:13;;;;;;;27.45;11.35;;;;;;;-3.21;100.00;98264.88;4176353;83;43371;-75
2021/12/09 01:38:16;;;;;;;25.72;11.97;;;;;;;-3.04;100.00;98261.77;4197508;83;42889;-77
2021/12/09 01:44:18;;;;;;;27.95;12.30;;;;;;;-3.15;100.00;98247.63;4198836;85;43418;-74
2021/12/09 01:50:19;;;;;;;28.12;13.43;;;;;;;-3.15;100.00;98241.89;4216371;83;43415;-74
2021/12/09 01:56:25;;;;;;;27.05;11.70;;;;;;;-2.84;100.00;98252.26;4196270;83;43426;-75
2021/12/09 02:02:26;;;;;;;26.95;11.53;;;;;;;-2.87;100.00;98253.40;4122143;85;28504;-75
2021/12/09 02:08:27;;;;;;;28.50;12.33;;;;;;;-3.03;100.00;98254.21;4103885;85;43465;-74
2021/12/09 02:14:29;;;;;;;26.52;11.22;;;;;;;-3.06;100.00;98257.69;4184580;83;43229;-75
2021/12/09 02:20:34;;;;;;;26.12;11.90;;;;;;;-3.28;100.00;98250.24;4194745;85;43265;-74
2021/12/09 02:26:39;;;;;;;27.05;11.63;;;;;;;-3.14;100.00;98251.42;4191437;84;43453;-74
2021/12/09 02:32:42;;;;;;;27.02;12.10;;;;;;;-3.04;100.00;98239.93;4216290;83;43343;-73
2021/12/09 02:38:44;;;;;;;30.57;13.72;;;;;;;-2.76;100.00;98236.95;4207953;84;43421;-75
2021/12/09 02:44:46;;;;;;;29.00;12.35;;;;;;;-3.08;100.00;98224.96;4214665;84;43410;-75
2021/12/09 02:50:50;;;;;;;29.07;11.83;;;;;;;-2.92;100.00;98235.98;4170638;85;43422;-75
2021/12/09 02:56:57;;;;;;;27.52;12.35;;;;;;;-3.13;100.00;98226.77;4186637;84;43468;-75
2021/12/09 03:03:00;;;;;;;26.85;12.05;;;;;;;-2.94;100.00;98245.34;4209936;83;43197;-75
2021/12/09 03:09:07;;;;;;;25.60;12.15;;;;;;;-2.83;100.00;98246.84;4189135;85;42851;-76
2021/12/09 03:15:09;;;;;;;24.15;11.05;;;;;;;-2.96;100.00;98256.53;4147736;83;42876;-75
2021/12/09 03:21:24;;;;;;;24.12;11.00;;;;;;;-3.06;100.00;98263.75;4169840;85;42874;-77
2021/12/09 03:27:26;;;;;;;23.77;11.65;;;;;;;-3.12;100.00;98260.47;4178895;83;28544;-76
2021/12/09 03:33:27;;;;;;;25.32;11.43;;;;;;;-3.07;100.00;98234.49;4159573;85;42866;-77
2021/12/09 03:39:33;;;;;;;24.57;10.65;;;;;;;-3.11;100.00;98231.88;4152428;84;42923;-76
2021/12/09 03:45:34;;;;;;;26.75;11.57;;;;;;;-3.05;100.00;98228.57;4130400;85;43346;-76
2021/12/09 03:51:36;;;;;;;26.27;12.10;;;;;;;-3.04;100.00;98238.61;4142599;84;43073;-76
2021/12/09 03:57:38;;;;;;;26.10;11.55;;;;;;;-3.03;100.00;98236.31;4140232;84;42859;-76
2021/12/09 04:03:39;;;;;;;23.73;10.65;;;;;;;-2.96;100.00;98243.89;4125277;84;43652;-76
2021/12/09 04:09:42;;;;;;;27.45;11.60;;;;;;;-2.90;100.00;98253.73;4107617;84;43412;-77
2021/12/09 04:15:43;;;;;;;26.45;11.88;;;;;;;-2.88;100.00;98253.08;4173596;84;42895;-79
2021/12/09 04:21:46;;;;;;;30.20;12.33;;;;;;;-2.80;100.00;98259.66;4112368;86;43436;-80
2021/12/09 04:27:50;;;;;;;28.17;12.13;;;;;;;-2.94;100.00;98249.29;4120612;84;43400;-79
2021/12/09 04:33:51;;;;;;;25.68;11.35;;;;;;;-2.94;100.00;98249.80;4147130;85;43435;-79
2021/12/09 04:39:53;;;;;;;24.55;11.25;;;;;;;-2.77;100.00;98239.27;4180645;85;43304;-78
2021/12/09 04:45:54;;;;;;;31.37;12.45;;;;;;;-3.02;100.00;98243.21;4183287;85;43398;-77
2021/12/09 04:51:57;;;;;;;29.92;12.37;;;;;;;-2.85;100.00;98246.67;4181276;85;43378;-78
2021/12/09 04:57:59;;;;;;;32.38;13.35;;;;;;;-2.95;100.00;98241.08;4136400;85;44143;-77
2021/12/09 05:04:02;;;;;;;34.23;14.80;;;;;;;-2.83;100.00;98238.11;4161983;85;44069;-78
2021/12/09 05:10:05;;;;;;;43.00;16.35;;;;;;;-2.68;100.00;98229.06;4160627;84;43695;-77
2021/12/09 05:16:09;;;;;;;40.43;14.58;;;;;;;-3.05;100.00;98215.42;4181003;85;44592;-78
2021/12/09 05:22:11;;;;;;;41.15;17.20;;;;;;;-3.00;100.00;98203.09;4186541;85;44412;-77
2021/12/09 05:28:16;;;;;;;43.33;15.32;;;;;;;-2.97;100.00;98218.54;4164105;82;44413;-76
2021/12/09 05:34:17;;;;;;;44.67;16.70;;;;;;;-3.02;100.00;98182.72;4138206;85;42868;-76
2021/12/09 05:40:18;;;;;;;37.30;14.23;;;;;;;-3.16;100.00;98193.39;4163632;85;44417;-76
2021/12/09 05:46:22;;;;;;;37.60;14.25;;;;;;;-3.12;100.00;98225.78;4118136;85;44442;-75
2021/12/09 05:52:22;;;;;;;36.35;14.00;;;;;;;-2.98;100.00;98228.26;4193388;84;44448;-79
2021/12/09 05:58:24;;;;;;;37.55;15.10;;;;;;;-3.20;100.00;98231.02;4207284;83;44551;-78
2021/12/09 06:04:25;;;;;;;31.87;13.22;;;;;;;-3.01;100.00;98200.97;4263113;83;43449;-77
2021/12/09 06:10:26;;;;;;;32.83;13.00;;;;;;;-3.12;100.00;98238.92;4191507;83;44127;-75
2021/12/09 06:16:28;;;;;;;33.95;13.68;;;;;;;-3.05;100.00;98227.77;4194488;83;44077;-75
2021/12/09 06:22:29;;;;;;;27.02;12.60;;;;;;;-3.07;100.00;98231.86;4206293;83;43363;-75
2021/12/09 06:28:30;;;;;;;30.20;12.35;;;;;;;-3.10;100.00;98229.57;4253671;82;43462;-76
2021/12/09 06:34:33;;;;;;;28.65;12.75;;;;;;;-2.96;100.00;98250.46;4258848;82;43366;-75
2021/12/09 06:40:34;;;;;;;27.95;11.90;;;;;;;-3.15;100.00;98280.02;4244925;82;43413;-75
2021/12/09 06:46:37;;;;;;;29.57;12.05;;;;;;;-2.95;100.00;98275.27;4260833;82;43401;-76
2021/12/09 06:52:39;;;;;;;32.23;12.68;;;;;;;-2.87;100.00;98282.34;4244300;82;44071;-72
2021/12/09 06:58:40;;;;;;;31.27;12.03;;;;;;;-2.92;100.00;98275.92;4250475;82;43467;-71
2021/12/09 07:04:41;;;;;;;30.80;12.82;;;;;;;-3.12;100.00;98281.52;4239647;82;43362;-71
2021/12/09 07:10:43;;;;;;;31.65;13.85;;;;;;;-3.19;100.00;98282.62;4193418;83;44094;-73
2021/12/09 07:16:47;;;;;;;31.23;13.05;;;;;;;-3.18;100.00;98290.84;4189236;83;43825;-73
2021/12/09 07:22:49;;;;;;;30.02;12.30;;;;;;;-3.19;100.00;98273.92;4201506;83;43390;-74
2021/12/09 07:28:50;;;;;;;28.52;13.18;;;;;;;-2.98;100.00;98281.34;4199111;83;43438;-71
2021/12/09 07:34:51;;;;;;;29.15;12.55;;;;;;;-3.24;100.00;98283.61;4179236;84;43379;-75
2021/12/09 07:40:53;;;;;;;29.70;12.28;;;;;;;-3.08;100.00;98274.93;4178086;84;43465;-73
2021/12/09 07:46:55;;;;;;;29.77;12.37;;;;;;;-3.03;100.00;98271.30;4178646;84;43418;-74
2021/12/09 07:52:57;;;;;;;32.10;13.48;;;;;;;-2.91;100.00;98262.62;4189964;83;44098;-74
2021/12/09 07:58:59;;;;;;;30.68;12.58;;;;;;;-3.05;100.00;98269.84;4181923;83;43456;-72
2021/12/09 10:37:50;;;;;;;28.65;13.05;;;;;;;-1.47;100.00;98153.89;4158521;82;28615;-74
2021/12/09 10:43:51;;;;;;;27.57;12.97;;;;;;;-1.35;100.00;98164.02;4149556;85;34578;-76
2021/12/09 10:50:19;;;;;;;27.45;13.22;;;;;;;-1.17;100.00;98152.69;4160166;84;28480;-79
2021/12/09 10:56:30;;;;;;;28.45;13.03;;;;;;;-1.11;100.00;98145.88;4150043;85;28586;-75
2021/12/09 11:02:31;;;;;;;26.55;12.47;;;;;;;-1.16;100.00;98129.26;4156079;84;28502;-77
2021/12/09 11:08:43;;;;;;;30.48;14.20;;;;;;;-1.03;100.00;98108.04;4128277;85;44117;-76
2021/12/09 11:14:58;;;;;;;29.52;13.60;;;;;;;-1.22;100.00;98118.09;4130069;84;28589;-81
2021/12/09 11:20:54;;;;;;;29.42;14.35;;;;;;;-1.13;100.00;98126.77;4131605;86;28513;-74
2021/12/09 11:27:01;;;;;;;27.85;13.10;;;;;;;-1.25;100.00;98111.86;4130091;84;28548;-74
2021/12/09 11:33:02;;;;;;;27.45;13.32;;;;;;;-1.20;100.00;98106.05;4130394;85;28463;-74
2021/12/09 11:39:21;;;;;;;28.27;12.73;;;;;;;-0.95;100.00;98096.09;4099258;85;28619;-74
2021/12/09 11:45:38;;;;;;;28.38;13.48;;;;;;;-0.88;100.00;98094.87;4089931;86;28492;-74
2021/12/09 11:51:40;;;;;;;29.45;14.63;;;;;;;-0.94;100.00;98096.89;4045876;86;43454;-74
2021/12/09 11:57:49;;;;;;;33.73;14.75;;;;;;;-0.94;100.00;98087.17;4087859;86;28540;-74
2021/12/09 12:17:10;;;;;;;31.23;13.90;;;;;;;-0.93;100.00;98066.38;4090172;86;28477;-74
2021/12/09 12:23:21;;;;;;;27.80;13.60;;;;;;;-0.86;100.00;98078.34;4103713;85;43426;-74
2021/12/09 12:35:44;;;;;;;32.45;14.63;;;;;;;-0.93;100.00;98073.50;4103718;86;44148;-76
2021/12/09 12:41:30;;;;;;;27.32;13.13;;;;;;;-0.73;100.00;98086.48;4128273;86;28561;-75
2021/12/09 12:47:39;;;;;;;26.48;12.90;;;;;;;-0.82;100.00;98083.60;4130450;85;28554;-80
2021/12/09 12:53:41;;;;;;;31.80;12.98;;;;;;;-0.77;100.00;98081.22;4130525;84;44098;-81
2021/12/09 12:59:47;;;;;;;26.17;12.90;;;;;;;-0.88;100.00;98080.35;4135021;86;28469;-77
2021/12/09 13:12:03;;;;;;;27.32;14.03;;;;;;;-0.89;100.00;98054.97;4098001;86;43368;-76
2021/12/09 13:18:05;;;;;;;31.27;13.50;;;;;;;-0.95;100.00;98053.04;4133640;86;43790;-84
2021/12/09 13:24:41;;;;;;;33.80;14.23;;;;;;;-1.02;100.00;98050.31;4124167;86;44180;-80
2021/12/09 13:31:22;;;;;;;27.85;13.35;;;;;;;-1.08;100.00;98044.45;4089591;86;28477;-74
2021/12/09 13:37:26;;;;;;;28.27;12.85;;;;;;;-1.13;100.00;98055.03;4086929;86;43397;-72
2021/12/09 13:55:24;;;;;;;31.07;14.60;;;;;;;-0.92;100.00;98079.09;4110704;85;28526;-73
2021/12/09 14:01:26;;;;;;;33.60;15.25;;;;;;;-1.02;100.00;98074.89;4109861;86;28570;-73
2021/12/09 14:07:34;;;;;;;36.95;15.60;;;;;;;-0.99;100.00;98073.20;4121536;86;28487;-74
2021/12/09 14:13:39;;;;;;;34.85;16.23;;;;;;;-0.91;100.00;98061.73;4133283;84;28504;-74
2021/12/09 14:19:58;;;;;;;36.95;17.32;;;;;;;-0.98;100.00;98047.65;4118457;86;28475;-74
2021/12/09 14:26:00;;;;;;;33.28;15.10;;;;;;;-1.04;100.00;98035.16;4136650;86;44110;-74
2021/12/09 14:32:06;;;;;;;35.08;16.02;;;;;;;-1.13;100.00;98065.58;4113651;86;44078;-73
2021/12/09 14:38:08;;;;;;;31.97;13.72;;;;;;;-1.06;100.00;98062.23;4149606;84;44122;-73
2021/12/09 14:44:11;;;;;;;36.13;15.83;;;;;;;-1.30;100.00;98047.77;4127177;85;44434;-74
2021/12/09 14:50:12;;;;;;;31.57;14.55;;;;;;;-1.36;100.00;98044.52;4141922;86;44158;-80
2021/12/09 14:56:31;;;;;;;34.40;15.95;;;;;;;-1.41;100.00;98044.25;4130594;84;44126;-77
2021/12/09 15:02:42;;;;;;;36.68;15.08;;;;;;;-1.28;100.00;98043.65;4135617;84;44469;-77
2021/12/09 15:08:48;;;;;;;37.30;15.38;;;;;;;-1.44;100.00;98045.94;4083823;86;44458;-76
2021/12/09 15:14:52;;;;;;;35.83;16.00;;;;;;;-1.34;100.00;98068.09;4136683;84;44503;-76
2021/12/09 15:20:57;;;;;;;38.17;16.27;;;;;;;-1.63;100.00;98048.05;4145039;85;28493;-77
2021/12/09 15:26:56;;;;;;;36.90;16.52;;;;;;;-1.50;100.00;98065.92;4136254;86;44444;-78
2021/12/09 15:33:01;;;;;;;37.63;17.75;;;;;;;-1.51;100.00;98050.27;4147159;85;44470;-79
2021/12/09 15:39:20;;;;;;;41.10;18.00;;;;;;;-1.52;100.00;98028.86;4079655;86;44411;-78
2021/12/09 15:45:22;;;;;;;34.03;15.93;;;;;;;-1.68;100.00;98035.89;4068081;86;44095;-77
2021/12/09 15:51:26;;;;;;;35.75;16.07;;;;;;;-1.50;100.00;98019.78;4074619;86;28561;-77
2021/12/09 15:57:35;;;;;;;39.53;17.20;;;;;;;-1.43;100.00;98021.20;4077372;86;44501;-75
2021/12/09 16:03:37;;;;;;;39.98;17.98;;;;;;;-1.65;100.00;98004.41;4157240;84;44484;-78
2021/12/09 16:09:39;;;;;;;36.50;16.25;;;;;;;-1.70;100.00;98007.58;4156436;84;44460;-79
2021/12/09 16:15:55;;;;;;;44.10;19.32;;;;;;;-1.58;100.00;98006.67;4152093;84;43730;-79
2021/12/09 16:28:07;;;;;;;43.70;18.92;;;;;;;-1.49;100.00;98024.05;4085895;85;43724;-77
2021/12/09 16:34:09;;;;;;;47.50;19.82;;;;;;;-1.50;100.00;98033.45;4114829;85;28478;-76
2021/12/09 16:47:16;;;;;;;44.95;17.67;;;;;;;-1.57;100.00;98042.05;3979584;84;43755;-78
2021/12/09 16:53:25;;;;;;;44.20;17.77;;;;;;;-1.66;100.00;98047.10;4002828;85;43721;-82
2021/12/09 16:59:30;;;;;;;44.40;18.00;;;;;;;-1.71;100.00;98071.34;4039556;86;43722;-79
2021/12/09 17:05:32;;;;;;;40.70;17.30;;;;;;;-1.59;100.00;98082.28;4040513;86;28520;-80
2021/12/09 17:11:35;;;;;;;43.02;18.60;;;;;;;-1.59;100.00;98082.28;4034089;86;50928;-78
2021/12/09 17:17:36;;;;;;;41.63;17.07;;;;;;;-1.91;100.00;98068.34;4040575;87;28582;-78
2021/12/09 17:23:37;;;;;;;40.85;18.20;;;;;;;-1.90;100.00;98078.39;4034376;86;44441;-79
2021/12/09 17:29:39;;;;;;;41.40;18.42;;;;;;;-1.67;100.00;98054.66;4038097;86;43706;-76
2021/12/09 17:35:40;;;;;;;46.83;20.00;;;;;;;-1.93;100.00;98051.89;4065176;86;43733;-80
2021/12/09 17:41:46;;;;;;;46.83;19.40;;;;;;;-1.83;100.00;98039.30;4043477;86;43737;-79
2021/12/09 17:47:51;;;;;;;52.10;21.87;;;;;;;-1.82;100.00;98040.14;4034601;86;28514;-77
2021/12/09 17:54:02;;;;;;;48.45;20.88;;;;;;;-1.85;100.00;98041.30;4056588;86;43752;-82
2021/12/09 18:00:22;;;;;;;56.35;22.37;;;;;;;-1.56;100.00;98029.70;4046300;86;44061;-81
2021/12/09 18:06:25;;;;;;;49.67;20.45;;;;;;;-1.68;100.00;98030.62;4063052;85;44095;-80
2021/12/09 18:12:30;;;;;;;50.30;21.87;;;;;;;-1.64;100.00;98016.59;4062324;85;44438;-82
2021/12/09 18:18:30;;;;;;;54.30;21.80;;;;;;;-1.61;100.00;98012.30;4064561;86;44245;-81
2021/12/09 18:24:34;;;;;;;55.43;22.17;;;;;;;-1.76;100.00;98022.80;4040553;86;44140;-77
2021/12/09 18:30:36;;;;;;;55.80;22.13;;;;;;;-1.67;100.00;98002.45;4035367;86;44072;-79
2021/12/09 18:36:39;;;;;;;56.05;23.02;;;;;;;-1.86;100.00;98012.48;4062655;86;44099;-78
2021/12/09 18:42:42;;;;;;;51.58;20.43;;;;;;;-1.65;100.00;97989.91;4035678;86;44013;-81
2021/12/09 18:48:46;;;;;;;50.30;21.47;;;;;;;-1.59;100.00;97997.92;4065798;86;28556;-80
2021/12/09 18:54:48;;;;;;;47.58;19.07;;;;;;;-1.62;100.00;97997.45;4033267;86;43718;-78
2021/12/09 19:00:52;;;;;;;54.45;21.20;;;;;;;-1.80;100.00;97990.70;4016173;87;44059;-79
2021/12/09 19:06:54;;;;;;;42.33;15.25;;;;;;;-1.82;100.00;97999.30;4039156;87;28577;-88
2021/12/09 19:12:59;;;;;;;52.93;20.32;;;;;;;-1.75;100.00;97993.61;4010722;87;28538;-81
2021/12/09 19:19:00;;;;;;;54.03;20.83;;;;;;;-1.79;100.00;97991.02;4050651;86;28575;-77
2021/12/09 19:25:05;;;;;;;49.53;20.48;;;;;;;-1.58;100.00;98002.71;4061864;86;44521;-82
2021/12/09 19:31:09;;;;;;;55.15;20.68;;;;;;;-1.69;100.00;98002.14;4036835;86;44109;-85
2021/12/09 19:37:10;;;;;;;52.73;20.08;;;;;;;-1.69;100.00;97991.59;4061029;86;44123;-77
2021/12/09 19:43:17;;;;;;;58.42;22.05;;;;;;;-1.56;100.00;97988.36;4076897;86;44128;-78
2021/12/09 19:49:17;;;;;;;49.63;20.48;;;;;;;-1.41;100.00;97983.12;4057103;86;44005;-79
2021/12/09 19:55:23;;;;;;;52.60;20.70;;;;;;;-1.60;100.00;97980.47;4062801;86;44083;-79
2021/12/09 20:01:24;;;;;;;51.55;20.75;;;;;;;-1.50;100.00;97972.33;4082067;86;28475;-80
2021/12/09 20:07:26;;;;;;;57.50;21.90;;;;;;;-1.69;100.00;97966.56;4086216;85;44076;-80
2021/12/09 20:13:35;;;;;;;54.63;20.85;;;;;;;-1.78;100.00;97976.84;4052755;86;44093;-80
2021/12/09 20:19:34;;;;;;;52.20;21.02;;;;;;;-1.70;100.00;97963.61;4086258;86;43871;-80
2021/12/09 20:25:37;;;;;;;55.52;21.33;;;;;;;-1.49;100.00;97972.64;4059111;86;44099;-80
2021/12/09 20:31:39;;;;;;;54.38;21.65;;;;;;;-1.49;100.00;97975.28;4087439;86;44099;-81
2021/12/09 20:37:40;;;;;;;51.45;21.23;;;;;;;-1.38;100.00;97976.64;4090757;86;28515;-83
2021/12/09 20:43:42;;;;;;;56.75;21.82;;;;;;;-1.57;100.00;97956.38;4034921;86;44099;-84
2021/12/09 20:49:43;;;;;;;52.50;21.23;;;;;;;-1.41;100.00;97945.37;4063819;85;44187;-82
2021/12/09 20:55:48;;;;;;;55.33;21.77;;;;;;;-1.37;100.00;97947.95;4024736;86;44069;-82
2021/12/09 21:01:50;;;;;;;63.85;23.73;;;;;;;-1.51;100.00;97952.23;4035490;87;43320;-81
2021/12/09 21:07:52;;;;;;;57.17;23.50;;;;;;;-1.47;100.00;97940.31;4021410;87;44074;-82
2021/12/09 21:14:00;;;;;;;55.00;22.10;;;;;;;-1.43;100.00;97940.78;4068678;86;28870;-81
2021/12/09 21:20:03;;;;;;;61.88;22.98;;;;;;;-1.47;100.00;97940.31;4059975;86;44498;-81
2021/12/09 21:26:04;;;;;;;58.25;23.45;;;;;;;-1.57;100.00;97929.22;4086208;86;44095;-83
2021/12/09 21:32:07;;;;;;;58.92;23.47;;;;;;;-1.52;100.00;97943.17;4009397;87;28526;-79
2021/12/09 21:38:11;;;;;;;58.33;23.40;;;;;;;-1.37;100.00;97941.88;4038158;86;44094;-79
2021/12/09 21:44:13;;;;;;;59.25;23.30;;;;;;;-1.27;100.00;97945.86;4053763;86;44154;-83
2021/12/09 21:50:16;;;;;;;61.68;23.85;;;;;;;-1.33;100.00;97912.81;4037023;86;43705;-82
2021/12/09 21:56:19;;;;;;;64.00;24.27;;;;;;;-1.50;100.00;97900.31;4054247;86;28570;-83
2021/12/09 22:02:24;;;;;;;62.65;23.05;;;;;;;-1.65;100.00;97916.95;4071693;86;28513;-77
2021/12/09 22:08:26;;;;;;;63.78;23.20;;;;;;;-1.36;100.00;97919.26;4051180;86;43705;-80
2021/12/09 22:14:27;;;;;;;63.52;24.70;;;;;;;-1.32;100.00;97921.88;4066451;86;43757;-80
2021/12/09 22:20:28;;;;;;;63.42;25.12;;;;;;;-1.22;100.00;97895.20;4035517;86;28530;-80
2021/12/09 22:26:30;;;;;;;66.80;24.82;;;;;;;-1.38;100.00;97901.48;4038577;86;43745;-83
2021/12/09 22:32:33;;;;;;;64.82;24.20;;;;;;;-1.44;100.00;97899.08;4061038;87;43772;-81
2021/12/09 22:38:37;;;;;;;60.10;23.67;;;;;;;-1.33;100.00;97863.53;4054537;86;44076;-81
2021/12/09 22:44:43;;;;;;;62.30;24.05;;;;;;;-1.52;100.00;97877.27;4047717;86;28507;-80
2021/12/09 22:50:46;;;;;;;66.40;24.57;;;;;;;-1.50;100.00;97875.27;4049816;86;28483;-81
2021/12/09 22:56:49;;;;;;;70.15;24.12;;;;;;;-1.39;100.00;97873.48;3991793;87;28584;-79
2021/12/09 23:02:50;;;;;;;67.85;25.12;;;;;;;-1.48;100.00;97797.64;4015394;87;43288;-80
2021/12/09 23:08:57;;;;;;;61.13;24.02;;;;;;;-1.57;100.00;97840.91;4018699;87;28559;-80
2021/12/09 23:15:01;;;;;;;64.27;24.32;;;;;;;-1.36;100.00;97857.30;4016655;87;28470;-81
2021/12/09 23:20:58;;;;;;;57.38;22.35;;;;;;;-1.16;100.00;97850.13;4002941;88;28585;-78
2021/12/09 23:27:01;;;;;;;59.45;22.35;;;;;;;-1.31;100.00;97824.61;4012334;87;28479;-79
2021/12/09 23:33:02;;;;;;;60.52;22.50;;;;;;;-1.38;100.00;97814.47;4011419;87;28496;-79
2021/12/09 23:39:09;;;;;;;57.93;23.38;;;;;;;-1.16;100.00;97839.09;4012455;88;28499;-80
2021/12/09 23:45:10;;;;;;;59.50;22.48;;;;;;;-1.15;100.00;97845.17;4003860;88;44131;-80
2021/12/09 23:51:11;;;;;;;59.85;22.80;;;;;;;-1.19;100.00;97842.11;4011933;88;44132;-80
2021/12/09 23:57:12;;;;;;;59.63;23.02;;;;;;;-1.15;100.00;97839.41;4059039;86;44300;-80
